MCT weather

Muscat International Airport
Muscat, Masqat Governorate, Oman

Public forecast

Using degrees Celsius for public forecast. Weather courtesy of forecast.io.

Current aviation weather report (METAR) for Muscat International Airport

Retrieved 2019/11/17 12:50 UTC (1 hour ago):

OOMS 171250Z 07015KT 9999 SCT025 SCT090 27/15 Q1015 NOSIG

Aviation forecast (TAF) for Muscat International Airport

Retrieved 2019/11/17 12:00 UTC (2 hours ago):

TAF OOMS 171100Z 1712/1818 07013KT 9000 NSC BECMG 1717/1719 VRB02KT PROB30 TEMPO 1806/1811 BKN050 BECMG 1807/1809 08015KT BECMG 1816/1818 VRB02KT